Time,TemperatureF,DewpointF,PressureIn,WindDirection,WindDirectionDegrees,WindSpeedMPH,WindSpeedGustMPH,Humidity,HourlyPrecipIn,Conditions,Clouds,dailyrainin,SoftwareType,DateUTC
2013-08-19 00:05:00,61.8,60.0,30.42,SSW,203,0.0,0.0,95,0.00,,,0.45,weatherlink.com 1.10,2013-08-19 04:05:00,
2013-08-19 00:20:00,61.5,60.0,30.42,SSW,203,0.0,1.0,95,0.00,,,0.00,weatherlink.com 1.10,2013-08-19 04:20:00,
2013-08-19 00:35:00,61.2,60.0,30.42,SSW,203,0.0,0.0,96,0.00,,,0.00,weatherlink.com 1.10,2013-08-19 04:35:00,
2013-08-19 00:50:00,61.0,60.0,30.42,SSW,203,0.0,1.0,96,0.00,,,0.00,weatherlink.com 1.10,2013-08-19 04:50:00,
2013-08-19 01:05:00,60.9,60.0,30.41,SSW,203,0.0,4.0,96,0.00,,,0.00,weatherlink.com 1.10,2013-08-19 05:05:00,
2013-08-19 01:20:00,61.1,60.0,30.41,SW,230,2.0,5.0,96,0.00,,,0.00,weatherlink.com 1.10,2013-08-19 05:20:00,
2013-08-19 01:35:00,61.3,60.0,30.41,SSW,200,2.0,5.0,96,0.00,,,0.00,weatherlink.com 1.10,2013-08-19 05:35:00,
2013-08-19 01:50:00,61.7,61.0,30.40,SSW,202,2.0,8.0,96,0.00,,,0.00,weatherlink.com 1.10,2013-08-19 05:50:00,
2013-08-19 02:05:00,62.1,61.0,30.40,SSW,212,2.0,5.0,95,0.00,,,0.00,weatherlink.com 1.10,2013-08-19 06:05:00,
2013-08-19 02:20:00,61.7,60.0,30.40,SSW,192,0.0,2.0,95,0.00,,,0.00,weatherlink.com 1.10,2013-08-19 06:20:00,
2013-08-19 02:36:00,62.2,61.0,30.39,SW,215,1.0,4.0,95,0.00,,,0.00,weatherlink.com 1.10,2013-08-19 06:36:00,
2013-08-19 02:51:00,62.5,61.0,30.39,West,274,4.0,5.0,95,0.00,,,0.00,weatherlink.com 1.10,2013-08-19 06:51:00,
2013-08-19 03:06:00,62.3,61.0,30.38,SSE,157,0.0,5.0,96,0.00,,,0.00,weatherlink.com 1.10,2013-08-19 07:06:00,
2013-08-19 03:21:00,62.8,61.0,30.38,West,271,2.0,5.0,95,0.00,,,0.00,weatherlink.com 1.10,2013-08-19 07:21:00,
2013-08-19 03:36:00,62.6,61.0,30.38,WSW,248,1.0,2.0,94,0.00,,,0.00,weatherlink.com 1.10,2013-08-19 07:36:00,
2013-08-19 03:51:00,62.5,61.0,30.38,WSW,240,0.0,1.0,94,0.00,,,0.00,weatherlink.com 1.10,2013-08-19 07:51:00,
2013-08-19 04:06:00,62.2,61.0,30.38,WSW,240,0.0,1.0,95,0.00,,,0.00,weatherlink.com 1.10,2013-08-19 08:06:00,
2013-08-19 04:21:00,62.0,61.0,30.37,WSW,240,0.0,0.0,95,0.00,,,0.00,weatherlink.com 1.10,2013-08-19 08:21:00,
2013-08-19 04:36:00,61.8,60.0,30.37,WSW,240,0.0,0.0,95,0.00,,,0.00,weatherlink.com 1.10,2013-08-19 08:36:00,
2013-08-19 04:51:00,61.9,61.0,30.37,WSW,240,0.0,0.0,96,0.00,,,0.00,weatherlink.com 1.10,2013-08-19 08:51:00,
2013-08-19 05:06:00,62.0,61.0,30.37,WSW,240,1.0,1.0,96,0.00,,,0.00,weatherlink.com 1.10,2013-08-19 09:06:00,
2013-08-19 05:21:00,62.2,61.0,30.37,SE,143,1.0,2.0,96,0.00,,,0.00,weatherlink.com 1.10,2013-08-19 09:21:00,
2013-08-19 05:36:00,62.5,61.0,30.37,SW,217,0.0,2.0,96,0.00,,,0.00,weatherlink.com 1.10,2013-08-19 09:36:00,
2013-08-19 05:51:00,62.4,61.0,30.36,SSW,212,1.0,2.0,96,0.00,,,0.00,weatherlink.com 1.10,2013-08-19 09:51:00,
2013-08-19 06:06:00,62.3,61.0,30.37,NW,316,1.0,7.0,95,0.00,,,0.00,weatherlink.com 1.10,2013-08-19 10:06:00,
2013-08-19 06:21:00,62.3,61.0,30.36,SE,135,0.0,2.0,96,0.00,,,0.00,weatherlink.com 1.10,2013-08-19 10:21:00,
2013-08-19 06:36:00,62.5,61.0,30.37,SSW,199,0.0,1.0,96,0.00,,,0.00,weatherlink.com 1.10,2013-08-19 10:36:00,
2013-08-19 06:51:00,62.6,62.0,30.39,West,266,0.0,2.0,96,0.00,,,0.00,weatherlink.com 1.10,2013-08-19 10:51:00,
2013-08-19 07:06:00,62.8,62.0,30.39,South,180,1.0,2.0,96,0.00,,,0.00,weatherlink.com 1.10,2013-08-19 11:06:00,
2013-08-19 07:21:00,63.1,62.0,30.39,West,275,1.0,3.0,96,0.00,,,0.00,weatherlink.com 1.10,2013-08-19 11:21:00,
2013-08-19 07:36:00,63.4,62.0,30.38,ESE,117,0.0,4.0,96,0.00,,,0.00,weatherlink.com 1.10,2013-08-19 11:36:00,
2013-08-19 07:51:00,63.7,63.0,30.39,NW,309,5.0,10.0,96,0.00,,,0.00,weatherlink.com 1.10,2013-08-19 11:51:00,
2013-08-19 08:06:00,64.0,63.0,30.38,SW,235,1.0,5.0,95,0.00,,,0.00,weatherlink.com 1.10,2013-08-19 12:06:00,
2013-08-19 08:33:00,64.6,63.0,30.38,WNW,296,1.0,4.0,95,0.00,,,0.00,weatherlink.com 1.10,2013-08-19 12:33:00,
2013-08-19 08:52:00,65.0,63.0,30.38,SW,214,0.0,5.0,94,0.00,,,0.00,weatherlink.com 1.10,2013-08-19 12:52:00,
2013-08-19 09:07:00,65.4,64.0,30.38,WNW,302,1.0,4.0,94,0.00,,,0.00,weatherlink.com 1.10,2013-08-19 13:07:00,
2013-08-19 09:22:00,65.8,64.0,30.37,SSW,206,1.0,4.0,93,0.00,,,0.00,weatherlink.com 1.10,2013-08-19 13:22:00,
2013-08-19 09:37:00,66.3,64.0,30.36,SW,214,2.0,4.0,92,0.00,,,0.00,weatherlink.com 1.10,2013-08-19 13:37:00,
2013-08-19 09:52:00,66.5,64.0,30.36,SSW,205,3.0,4.0,91,0.00,,,0.00,weatherlink.com 1.10,2013-08-19 13:52:00,
2013-08-19 10:07:00,66.6,64.0,30.37,SW,217,3.0,6.0,90,0.00,,,0.00,weatherlink.com 1.10,2013-08-19 14:07:00,
2013-08-19 10:22:00,67.1,64.0,30.37,SW,219,2.0,5.0,90,0.00,,,0.00,weatherlink.com 1.10,2013-08-19 14:22:00,
2013-08-19 10:37:00,67.4,64.0,30.37,West,259,0.0,6.0,89,0.00,,,0.00,weatherlink.com 1.10,2013-08-19 14:37:00,
2013-08-19 10:52:00,67.9,64.0,30.36,SSW,211,0.0,5.0,88,0.00,,,0.00,weatherlink.com 1.10,2013-08-19 14:52:00,
2013-08-19 11:07:00,68.9,65.0,30.37,NW,318,5.0,6.0,87,0.00,,,0.00,weatherlink.com 1.10,2013-08-19 15:07:00,
2013-08-19 11:22:00,69.6,65.0,30.36,West,262,5.0,7.0,86,0.00,,,0.00,weatherlink.com 1.10,2013-08-19 15:22:00,
2013-08-19 11:37:00,70.7,66.0,30.36,WNW,302,4.0,8.0,84,0.00,,,0.00,weatherlink.com 1.10,2013-08-19 15:37:00,
2013-08-19 11:52:00,71.2,66.0,30.36,West,259,1.0,7.0,84,0.00,,,0.00,weatherlink.com 1.10,2013-08-19 15:52:00,
2013-08-19 12:07:00,71.6,66.0,30.36,WNW,286,1.0,6.0,82,0.00,,,0.00,weatherlink.com 1.10,2013-08-19 16:07:00,
2013-08-19 12:22:00,72.1,67.0,30.35,West,270,0.0,6.0,83,0.00,,,0.00,weatherlink.com 1.10,2013-08-19 16:22:00,
2013-08-19 12:37:00,73.3,67.0,30.35,West,278,1.0,7.0,81,0.00,,,0.00,weatherlink.com 1.10,2013-08-19 16:37:00,
2013-08-19 12:52:00,73.1,67.0,30.35,West,279,2.0,8.0,82,0.00,,,0.00,weatherlink.com 1.10,2013-08-19 16:52:00,
2013-08-19 13:07:00,73.2,67.0,30.35,WSW,252,5.0,7.0,81,0.00,,,0.00,weatherlink.com 1.10,2013-08-19 17:07:00,
2013-08-19 13:22:00,73.8,68.0,30.35,WSW,247,0.0,7.0,81,0.00,,,0.00,weatherlink.com 1.10,2013-08-19 17:22:00,
2013-08-19 13:37:00,74.5,68.0,30.34,WSW,240,4.0,9.0,79,0.00,,,0.00,weatherlink.com 1.10,2013-08-19 17:37:00,
2013-08-19 13:52:00,74.3,67.0,30.34,SW,231,8.0,10.0,79,0.00,,,0.00,weatherlink.com 1.10,2013-08-19 17:52:00,
2013-08-19 14:07:00,74.9,68.0,30.33,West,269,0.0,5.0,79,0.00,,,0.00,weatherlink.com 1.10,2013-08-19 18:07:00,
2013-08-19 14:22:00,75.9,67.0,30.32,West,277,0.0,4.0,75,0.00,,,0.00,weatherlink.com 1.10,2013-08-19 18:22:00,
2013-08-19 14:37:00,76.2,68.0,30.32,NW,314,0.0,5.0,75,0.00,,,0.00,weatherlink.com 1.10,2013-08-19 18:37:00,
2013-08-19 14:52:00,76.1,68.0,30.32,NW,319,5.0,6.0,76,0.00,,,0.00,weatherlink.com 1.10,2013-08-19 18:52:00,
2013-08-19 15:07:00,76.3,68.0,30.32,SW,230,0.0,6.0,76,0.00,,,0.00,weatherlink.com 1.10,2013-08-19 19:07:00,
2013-08-19 15:23:00,76.4,68.0,30.31,WSW,254,0.0,7.0,76,0.00,,,0.00,weatherlink.com 1.10,2013-08-19 19:23:00,
2013-08-19 15:38:00,76.6,69.0,30.30,West,271,0.0,7.0,76,0.00,,,0.00,weatherlink.com 1.10,2013-08-19 19:38:00,
2013-08-19 15:52:00,77.7,68.0,30.30,SW,216,7.0,9.0,71,0.00,,,0.00,weatherlink.com 1.10,2013-08-19 19:52:00,
2013-08-19 16:07:00,78.1,68.0,30.30,WSW,241,0.0,7.0,71,0.00,,,0.00,weatherlink.com 1.10,2013-08-19 20:07:00,
2013-08-19 16:22:00,78.5,68.0,30.30,West,275,0.0,7.0,69,0.00,,,0.00,weatherlink.com 1.10,2013-08-19 20:22:00,
2013-08-19 16:37:00,78.6,67.0,30.30,SSW,213,5.0,7.0,67,0.00,,,0.00,weatherlink.com 1.10,2013-08-19 20:37:00,
2013-08-19 16:52:00,79.1,68.0,30.29,SSW,212,1.0,7.0,68,0.00,,,0.00,weatherlink.com 1.10,2013-08-19 20:52:00,
2013-08-19 17:07:00,78.8,68.0,30.29,SW,223,4.0,7.0,69,0.00,,,0.00,weatherlink.com 1.10,2013-08-19 21:07:00,
2013-08-19 17:22:00,79.6,68.0,30.28,SW,225,0.0,6.0,67,0.00,,,0.00,weatherlink.com 1.10,2013-08-19 21:22:00,
2013-08-19 17:37:00,79.4,67.0,30.28,SW,227,8.0,9.0,66,0.00,,,0.00,weatherlink.com 1.10,2013-08-19 21:37:00,
2013-08-19 17:52:00,79.3,67.0,30.28,WSW,250,0.0,7.0,67,0.00,,,0.00,weatherlink.com 1.10,2013-08-19 21:52:00,
2013-08-19 18:07:00,79.4,67.0,30.28,SW,228,0.0,5.0,66,0.00,,,0.00,weatherlink.com 1.10,2013-08-19 22:07:00,
2013-08-19 18:22:00,78.7,68.0,30.28,South,178,0.0,2.0,69,0.00,,,0.00,weatherlink.com 1.10,2013-08-19 22:22:00,
2013-08-19 18:37:00,79.5,68.0,30.27,SSE,163,0.0,2.0,68,0.00,,,0.00,weatherlink.com 1.10,2013-08-19 22:37:00,
2013-08-19 18:52:00,79.0,67.0,30.27,SE,145,0.0,8.0,67,0.00,,,0.00,weatherlink.com 1.10,2013-08-19 22:52:00,
2013-08-19 19:07:00,78.7,68.0,30.28,SSE,156,0.0,0.0,69,0.00,,,0.00,weatherlink.com 1.10,2013-08-19 23:07:00,
2013-08-19 19:22:00,78.3,68.0,30.27,South,172,0.0,0.0,70,0.00,,,0.00,weatherlink.com 1.10,2013-08-19 23:22:00,
2013-08-19 19:37:00,78.3,68.0,30.28,South,172,0.0,0.0,71,0.00,,,0.00,weatherlink.com 1.10,2013-08-19 23:37:00,
2013-08-19 19:52:00,77.1,69.0,30.28,South,172,0.0,0.0,77,0.00,,,0.00,weatherlink.com 1.10,2013-08-19 23:52:00,
2013-08-19 20:07:00,75.3,68.0,30.28,South,172,0.0,0.0,79,0.00,,,0.00,weatherlink.com 1.10,2013-08-20 00:07:00,
2013-08-19 20:22:00,74.1,68.0,30.28,South,172,0.0,0.0,81,0.00,,,0.00,weatherlink.com 1.10,2013-08-20 00:22:00,
2013-08-19 20:37:00,73.6,68.0,30.28,South,172,0.0,0.0,83,0.00,,,0.00,weatherlink.com 1.10,2013-08-20 00:37:00,
2013-08-19 20:52:00,72.3,68.0,30.29,NW,317,0.0,0.0,86,0.00,,,0.00,weatherlink.com 1.10,2013-08-20 00:52:00,
2013-08-19 21:07:00,71.9,68.0,30.30,ENE,75,0.0,5.0,87,0.00,,,0.00,weatherlink.com 1.10,2013-08-20 01:07:00,
2013-08-19 21:22:00,72.8,68.0,30.31,North,355,0.0,6.0,85,0.00,,,0.00,weatherlink.com 1.10,2013-08-20 01:22:00,
2013-08-19 21:37:00,73.4,68.0,30.32,ENE,69,0.0,8.0,83,0.00,,,0.00,weatherlink.com 1.10,2013-08-20 01:37:00,
2013-08-19 21:52:00,73.0,68.0,30.32,NNW,347,0.0,6.0,85,0.00,,,0.00,weatherlink.com 1.10,2013-08-20 01:52:00,
2013-08-19 22:07:00,72.1,69.0,30.32,North,350,0.0,1.0,89,0.03,,,0.03,weatherlink.com 1.10,2013-08-20 02:07:00,
2013-08-19 22:22:00,71.1,68.0,30.32,NNW,330,0.0,0.0,91,0.03,,,0.03,weatherlink.com 1.10,2013-08-20 02:22:00,
2013-08-19 22:37:00,70.7,68.0,30.33,NNW,345,0.0,1.0,92,0.03,,,0.03,weatherlink.com 1.10,2013-08-20 02:37:00,
2013-08-19 22:52:00,70.3,69.0,30.33,NNW,345,0.0,0.0,94,0.03,,,0.03,weatherlink.com 1.10,2013-08-20 02:52:00,
2013-08-19 23:07:00,70.1,68.0,30.33,NNW,345,0.0,1.0,94,0.00,,,0.03,weatherlink.com 1.10,2013-08-20 03:07:00,
2013-08-19 23:22:00,69.9,68.0,30.33,NNW,345,0.0,0.0,94,0.00,,,0.03,weatherlink.com 1.10,2013-08-20 03:22:00,
2013-08-19 23:37:00,69.3,68.0,30.33,NNW,345,0.0,0.0,94,0.00,,,0.03,weatherlink.com 1.10,2013-08-20 03:37:00,
2013-08-19 23:52:00,68.8,67.0,30.33,NNW,345,0.0,1.0,95,0.00,,,0.03,weatherlink.com 1.10,2013-08-20 03:52:00,